Time;durP1;ratioP1;P1;durP2;ratioP2;P2;SDS_P1;SDS_P2;PMS_P1;PMS_P2;Temp;Humidity;BMP_temperature;BMP_pressure;BME280_temperature;BME280_humidity;BME280_pressure;Samples;Min_cycle;Max_cycle;Signal;HPM_P1;HPM_P2
2022/03/07 00:00:43;;;;;;;;;;;;;;;19.79;48.20;99743.03;2088744;28;19920;-58
2022/03/07 00:01:43;;;;;;;;;;;;;;;19.79;48.24;99754.00;2091019;28;20314;-57
2022/03/07 00:02:44;;;;;;;;;;;;;;;19.80;48.21;99750.25;2086055;28;20367;-57
2022/03/07 00:03:44;;;;;;;;;;;;;;;19.81;48.23;99746.47;2097059;28;19954;-58
2022/03/07 00:04:44;;;;;;;;;;;;;;;19.81;48.08;99747.34;2090310;28;19909;-57
2022/03/07 00:05:45;;;;;;;;;;;;;;;19.81;48.20;99749.22;2093958;28;19920;-58
2022/03/07 00:06:45;;;;;;;;;;;;;;;19.79;48.25;99754.00;2091494;28;20322;-58
2022/03/07 00:07:45;;;;;;;;;;;;;;;19.78;48.31;99747.66;2093317;28;19923;-58
2022/03/07 00:08:46;;;;;;;;;;;;;;;19.79;48.26;99749.38;2083702;28;19921;-57
2022/03/07 00:09:46;;;;;;;;;;;;;;;19.78;48.29;99753.13;2082445;28;19924;-56
2022/03/07 00:10:47;;;;;;;;;;;;;;;19.78;48.15;99746.81;2090641;28;19920;-57
2022/03/07 00:11:47;;;;;;;;;;;;;;;19.78;48.27;99746.81;2096006;28;20672;-57
2022/03/07 00:12:47;;;;;;;;;;;;;;;19.77;48.24;99739.63;2090857;28;20011;-57
2022/03/07 00:13:48;;;;;;;;;;;;;;;19.76;48.23;99743.38;2092719;28;20233;-57
2022/03/07 00:14:48;;;;;;;;;;;;;;;19.75;48.23;99747.16;2089145;28;20266;-57
2022/03/07 00:15:49;;;;;;;;;;;;;;;19.75;48.33;99747.16;2093802;28;19919;-57
2022/03/07 00:16:49;;;;;;;;;;;;;;;19.74;48.36;99743.53;2090614;28;20132;-57
2022/03/07 00:17:49;;;;;;;;;;;;;;;19.73;48.34;99746.44;2086873;28;19932;-57
2022/03/07 00:18:50;;;;;;;;;;;;;;;19.73;48.26;99744.56;2091629;28;19920;-57
2022/03/07 00:19:50;;;;;;;;;;;;;;;19.72;48.21;99751.06;2086130;28;19927;-57
2022/03/07 00:20:50;;;;;;;;;;;;;;;19.72;48.30;99741.97;2086721;28;19921;-57
2022/03/07 00:21:51;;;;;;;;;;;;;;;19.69;48.35;99749.50;2089045;28;20338;-57
2022/03/07 00:22:51;;;;;;;;;;;;;;;19.69;48.36;99744.00;2090444;28;19916;-57
2022/03/07 00:23:51;;;;;;;;;;;;;;;19.70;48.48;99748.47;2091084;28;19919;-57
2022/03/07 00:24:52;;;;;;;;;;;;;;;19.69;48.50;99754.94;2091701;28;20313;-57
2022/03/07 00:25:52;;;;;;;;;;;;;;;19.69;48.50;99748.63;2092448;28;19926;-57
2022/03/07 00:26:52;;;;;;;;;;;;;;;19.68;48.46;99753.25;2086871;28;19970;-57
2022/03/07 00:27:53;;;;;;;;;;;;;;;19.68;48.38;99753.25;2092552;28;19998;-57
2022/03/07 00:28:53;;;;;;;;;;;;;;;19.69;48.37;99756.84;2091130;28;20239;-57
2022/03/07 00:29:54;;;;;;;;;;;;;;;19.67;48.38;99748.81;2093353;28;20003;-57
2022/03/07 00:30:54;;;;;;;;;;;;;;;19.67;48.39;99743.34;2089571;28;20078;-57
2022/03/07 00:31:54;;;;;;;;;;;;;;;19.68;48.41;99758.72;2088194;28;19924;-57
2022/03/07 00:32:54;;;;;;;;;;;;;;;19.69;48.39;99752.22;2085685;28;19927;-57
2022/03/07 00:33:55;;;;;;;;;;;;;;;19.71;48.37;99757.53;2089175;28;19920;-57
2022/03/07 00:34:55;;;;;;;;;;;;;;;19.72;48.37;99747.44;2094103;28;20230;-57
2022/03/07 00:35:55;;;;;;;;;;;;;;;19.71;48.30;99746.59;2091458;28;20019;-58
2022/03/07 00:36:55;;;;;;;;;;;;;;;19.73;48.32;99754.66;2092066;28;19924;-57
2022/03/07 00:37:56;;;;;;;;;;;;;;;19.73;48.32;99754.66;2088405;28;19916;-57
2022/03/07 00:38:56;;;;;;;;;;;;;;;19.74;48.45;99754.47;2087647;28;20292;-58
2022/03/07 00:39:56;;;;;;;;;;;;;;;19.74;48.36;99748.16;2092050;28;19926;-57
2022/03/07 00:40:57;;;;;;;;;;;;;;;19.73;48.30;99750.03;2092793;28;19920;-58
2022/03/07 00:41:58;;;;;;;;;;;;;;;19.73;48.25;99743.72;2090138;28;19985;-58
2022/03/07 00:42:58;;;;;;;;;;;;;;;19.74;48.37;99750.88;2088870;28;20196;-59
2022/03/07 00:43:58;;;;;;;;;;;;;;;19.73;48.34;99751.91;2092962;28;19927;-58
2022/03/07 00:44:59;;;;;;;;;;;;;;;19.72;48.28;99747.44;2089918;28;20013;-58
2022/03/07 00:45:59;;;;;;;;;;;;;;;19.71;48.37;99749.34;2089895;28;19919;-58
2022/03/07 00:47:00;;;;;;;;;;;;;;;19.71;48.35;99746.59;2096811;28;19926;-58
2022/03/07 00:48:00;;;;;;;;;;;;;;;19.70;48.52;99750.38;2091677;28;19928;-59
2022/03/07 00:49:00;;;;;;;;;;;;;;;19.70;48.46;99750.38;2098207;28;19912;-58
2022/03/07 00:50:03;;;;;;;;;;;;;;;19.69;48.41;99748.63;2076432;28;19917;-58
2022/03/07 00:51:03;;;;;;;;;;;;;;;19.69;48.45;99749.50;2086188;28;19912;-58
2022/03/07 00:52:03;;;;;;;;;;;;;;;19.69;48.37;99749.50;2088762;28;20393;-58
2022/03/07 00:53:04;;;;;;;;;;;;;;;19.69;48.47;99748.63;2088586;28;20009;-58
2022/03/07 00:54:05;;;;;;;;;;;;;;;19.69;48.33;99748.63;2092413;28;19927;-58
2022/03/07 00:55:06;;;;;;;;;;;;;;;19.70;48.31;99750.38;2091329;28;19973;-58
2022/03/07 00:56:07;;;;;;;;;;;;;;;19.69;48.39;99754.94;2088742;28;19957;-59
2022/03/07 00:57:07;;;;;;;;;;;;;;;19.70;48.37;99753.09;2096666;28;20269;-58
2022/03/07 00:58:08;;;;;;;;;;;;;;;19.70;48.48;99756.69;2091340;28;20069;-58
2022/03/07 00:59:08;;;;;;;;;;;;;;;19.70;48.39;99751.22;2092935;28;19916;-58
2022/03/07 01:00:09;;;;;;;;;;;;;;;19.70;48.39;99745.75;2096072;28;20322;-58
2022/03/07 01:01:10;;;;;;;;;;;;;;;19.72;48.37;99752.91;2087126;28;19913;-58
2022/03/07 01:02:10;;;;;;;;;;;;;;;19.72;48.31;99752.91;2088483;28;19920;-58
2022/03/07 01:03:11;;;;;;;;;;;;;;;19.73;48.32;99749.19;2085188;28;19964;-58
2022/03/07 01:04:11;;;;;;;;;;;;;;;19.73;48.40;99755.50;2087820;28;20560;-58
2022/03/07 01:05:12;;;;;;;;;;;;;;;19.75;48.27;99755.34;2096310;28;20084;-59
2022/03/07 01:06:13;;;;;;;;;;;;;;;19.75;48.07;99758.94;2084167;28;20321;-59
2022/03/07 01:07:13;;;;;;;;;;;;;;;19.74;48.32;99754.47;2095854;28;19998;-59
2022/03/07 01:08:14;;;;;;;;;;;;;;;19.75;48.31;99758.09;2091242;28;19916;-58
2022/03/07 01:09:14;;;;;;;;;;;;;;;19.76;48.23;99762.53;2092112;28;19909;-58
2022/03/07 01:10:14;;;;;;;;;;;;;;;19.76;48.23;99755.16;2092599;28;19962;-59
2022/03/07 01:11:14;;;;;;;;;;;;;;;19.76;48.19;99762.53;2086940;28;19970;-58
2022/03/07 01:12:15;;;;;;;;;;;;;;;19.76;48.14;99749.69;2093534;28;19986;-58
2022/03/07 01:13:15;;;;;;;;;;;;;;;19.76;48.22;99760.63;2092017;28;19916;-58
2022/03/07 01:14:15;;;;;;;;;;;;;;;19.76;48.28;99759.78;2091168;28;20234;-58
2022/03/07 01:15:16;;;;;;;;;;;;;;;19.75;48.24;99758.94;2094020;28;19920;-59
2022/03/07 01:16:16;;;;;;;;;;;;;;;19.74;48.18;99753.63;2087772;28;19920;-58
2022/03/07 01:17:17;;;;;;;;;;;;;;;19.73;48.27;99754.66;2095439;28;20311;-58
2022/03/07 01:18:17;;;;;;;;;;;;;;;19.73;48.30;99760.13;2090590;28;19943;-58
2022/03/07 01:19:17;;;;;;;;;;;;;;;19.72;48.25;99758.38;2090699;28;19920;-58
2022/03/07 01:20:18;;;;;;;;;;;;;;;19.70;48.24;99748.47;2097658;28;20101;-58
2022/03/07 01:21:18;;;;;;;;;;;;;;;19.69;48.32;99757.69;2090538;28;20335;-58
2022/03/07 01:22:18;;;;;;;;;;;;;;;19.69;48.42;99748.63;2089085;28;19931;-58
2022/03/07 01:23:19;;;;;;;;;;;;;;;19.69;48.29;99752.22;2091414;28;20549;-59
2022/03/07 01:24:19;;;;;;;;;;;;;;;19.68;48.40;99747.78;2087311;28;19920;-59
2022/03/07 01:25:19;;;;;;;;;;;;;;;19.68;48.33;99744.19;2097244;28;19920;-58
2022/03/07 01:26:19;;;;;;;;;;;;;;;19.68;48.32;99742.31;2088381;28;19926;-58
2022/03/07 01:27:20;;;;;;;;;;;;;;;19.66;48.57;99747.06;2095217;28;19920;-58
2022/03/07 01:28:20;;;;;;;;;;;;;;;19.65;48.39;99745.34;2088175;28;20473;-58
2022/03/07 01:29:21;;;;;;;;;;;;;;;19.65;48.40;99750.81;2082295;28;19916;-59
2022/03/07 01:30:22;;;;;;;;;;;;;;;19.65;48.34;99742.63;2079730;28;20034;-59
2022/03/07 01:31:22;;;;;;;;;;;;;;;19.65;48.40;99745.34;2080634;28;20625;-58
2022/03/07 01:32:23;;;;;;;;;;;;;;;19.65;48.38;99737.16;2082005;28;20217;-58
2022/03/07 01:33:23;;;;;;;;;;;;;;;19.65;48.48;99742.63;2091902;28;20208;-58
2022/03/07 01:34:23;;;;;;;;;;;;;;;19.65;48.38;99741.75;2084766;28;20170;-57
2022/03/07 01:35:24;;;;;;;;;;;;;;;19.65;48.46;99737.16;2090962;28;20208;-57
2022/03/07 01:36:24;;;;;;;;;;;;;;;19.64;48.49;99735.41;2092441;28;20000;-57
2022/03/07 01:37:25;;;;;;;;;;;;;;;19.65;48.32;99742.63;2091421;28;20093;-57
2022/03/07 01:38:25;;;;;;;;;;;;;;;19.65;48.43;99742.63;2093461;28;20478;-57
2022/03/07 01:39:25;;;;;;;;;;;;;;;19.64;48.38;99729.94;2092187;28;20501;-56
2022/03/07 01:40:26;;;;;;;;;;;;;;;19.63;48.45;99733.72;2086899;28;19920;-57
2022/03/07 01:41:26;;;;;;;;;;;;;;;19.64;48.46;99735.41;2092281;28;19916;-57
2022/03/07 01:42:26;;;;;;;;;;;;;;;19.64;48.43;99729.09;2089831;28;19920;-57
2022/03/07 01:43:27;;;;;;;;;;;;;;;19.64;48.41;99732.69;2084487;28;20325;-57
2022/03/07 01:44:28;;;;;;;;;;;;;;;19.63;48.51;99730.97;2090486;28;19920;-57
2022/03/07 01:45:28;;;;;;;;;;;;;;;19.64;48.41;99735.41;2090859;28;19942;-57
2022/03/07 01:46:30;;;;;;;;;;;;;;;19.64;48.47;99735.41;2090274;28;19916;-57
2022/03/07 01:47:33;;;;;;;;;;;;;;;19.62;48.54;99732.00;2085778;28;20166;-57
2022/03/07 01:48:33;;;;;;;;;;;;;;;19.62;48.61;99728.41;2083721;28;19920;-57
2022/03/07 01:49:33;;;;;;;;;;;;;;;19.62;48.48;99726.53;2091455;28;19920;-57
2022/03/07 01:50:34;;;;;;;;;;;;;;;19.62;48.43;99729.28;2087520;28;20223;-57
2022/03/07 01:51:34;;;;;;;;;;;;;;;19.62;48.38;99728.41;2087201;28;20130;-57
2022/03/07 01:52:37;;;;;;;;;;;;;;;19.61;48.51;99730.28;2092532;28;19924;-57
2022/03/07 01:53:39;;;;;;;;;;;;;;;19.61;48.47;99727.53;2091458;28;20480;-57
2022/03/07 01:54:39;;;;;;;;;;;;;;;19.61;48.44;99724.81;2096500;28;20018;-57
2022/03/07 01:55:39;;;;;;;;;;;;;;;19.62;48.49;99726.53;2086907;28;20274;-57
2022/03/07 01:56:42;;;;;;;;;;;;;;;19.61;48.45;99722.06;2091154;28;19920;-58
2022/03/07 01:57:44;;;;;;;;;;;;;;;19.61;48.38;99724.81;2093484;28;19920;-57
2022/03/07 01:58:44;;;;;;;;;;;;;;;19.61;48.46;99723.97;2090771;28;19924;-58
2022/03/07 01:59:45;;;;;;;;;;;;;;;19.61;48.41;99721.22;2086947;28;19916;-57
2022/03/07 02:00:47;;;;;;;;;;;;;;;19.62;48.35;99726.53;2090790;28;19924;-58
2022/03/07 02:01:47;;;;;;;;;;;;;;;19.61;48.45;99724.81;2085207;28;19923;-58
2022/03/07 02:02:48;;;;;;;;;;;;;;;19.62;48.50;99725.66;2082188;28;19920;-57
2022/03/07 02:03:49;;;;;;;;;;;;;;;19.61;48.50;99724.81;2087458;28;20108;-57
2022/03/07 02:04:49;;;;;;;;;;;;;;;19.63;48.53;99721.91;2088709;28;19916;-58
2022/03/07 02:05:50;;;;;;;;;;;;;;;19.63;48.49;99728.25;2094845;28;19941;-57
2022/03/07 02:06:51;;;;;;;;;;;;;;;19.63;48.46;99722.78;2093413;28;19912;-57
2022/03/07 02:07:53;;;;;;;;;;;;;;;19.64;48.34;99721.75;2092585;28;20066;-57
2022/03/07 02:08:54;;;;;;;;;;;;;;;19.64;48.32;99721.75;2093242;28;19919;-57
2022/03/07 02:09:54;;;;;;;;;;;;;;;19.64;48.46;99723.63;2090604;28;19916;-57
2022/03/07 02:10:55;;;;;;;;;;;;;;;19.64;48.47;99719.00;2095448;28;19978;-58
2022/03/07 02:11:55;;;;;;;;;;;;;;;19.64;48.51;99712.69;2093156;28;19920;-57
2022/03/07 02:12:55;;;;;;;;;;;;;;;19.63;48.50;99720.03;2090769;28;19916;-57
2022/03/07 02:13:55;;;;;;;;;;;;;;;19.64;48.42;99713.53;2084436;28;19920;-57
2022/03/07 02:14:56;;;;;;;;;;;;;;;19.64;48.49;99718.16;2089014;28;20295;-57
2022/03/07 02:15:56;;;;;;;;;;;;;;;19.63;48.52;99714.56;2088455;28;19912;-57
2022/03/07 02:16:57;;;;;;;;;;;;;;;19.63;48.49;99720.03;2077154;28;19994;-57
2022/03/07 02:17:57;;;;;;;;;;;;;;;19.63;48.49;99716.47;2080346;28;19920;-58
2022/03/07 02:18:57;;;;;;;;;;;;;;;19.61;48.53;99707.56;2091072;28;19927;-57
2022/03/07 02:19:57;;;;;;;;;;;;;;;19.62;48.52;99714.72;2088377;28;19924;-57
2022/03/07 02:21:03;;;;;;;;;;;;;;;19.59;48.49;99704.97;2087684;28;19908;-57
2022/03/07 02:22:04;;;;;;;;;;;;;;;19.59;48.51;99704.97;2089026;28;19939;-57
2022/03/07 02:23:04;;;;;;;;;;;;;;;19.58;48.46;99700.53;2095227;28;19904;-56
2022/03/07 02:24:05;;;;;;;;;;;;;;;19.57;48.45;99704.28;2093723;28;19916;-57
2022/03/07 02:25:06;;;;;;;;;;;;;;;19.56;48.57;99694.38;2087056;28;20262;-57
2022/03/07 02:26:16;;;;;;;;;;;;;;;19.56;48.49;99694.38;2090543;28;20317;-57
2022/03/07 02:27:18;;;;;;;;;;;;;;;19.57;48.61;99695.22;2095579;28;19920;-57
2022/03/07 02:28:18;;;;;;;;;;;;;;;19.55;48.51;99700.88;2093711;28;19927;-57
2022/03/07 02:29:19;;;;;;;;;;;;;;;19.55;48.50;99699.97;2088538;28;20450;-58
2022/03/07 02:30:19;;;;;;;;;;;;;;;19.55;48.43;99697.25;2090361;28;20311;-57
2022/03/07 02:31:21;;;;;;;;;;;;;;;19.54;48.63;99699.13;2097696;28;20318;-58
2022/03/07 02:32:22;;;;;;;;;;;;;;;19.52;48.62;99692.97;2092418;28;19920;-57
2022/03/07 02:33:22;;;;;;;;;;;;;;;19.53;48.61;99688.38;2091279;28;19919;-57
2022/03/07 02:34:23;;;;;;;;;;;;;;;19.52;48.64;99690.22;2089677;28;19932;-57
2022/03/07 02:35:23;;;;;;;;;;;;;;;19.52;48.57;99690.22;2086558;28;19920;-57
2022/03/07 02:36:24;;;;;;;;;;;;;;;19.53;48.56;99688.38;2094188;28;20185;-57
2022/03/07 02:37:24;;;;;;;;;;;;;;;19.52;48.65;99692.97;2095338;28;19927;-57
2022/03/07 02:38:25;;;;;;;;;;;;;;;19.52;48.73;99690.22;2096927;28;20486;-57
2022/03/07 02:39:25;;;;;;;;;;;;;;;19.52;48.62;99692.97;2091516;28;19967;-57
2022/03/07 02:40:25;;;;;;;;;;;;;;;19.53;48.64;99693.84;2086112;28;20407;-57
2022/03/07 02:41:26;;;;;;;;;;;;;;;19.51;48.70;99688.53;2086477;28;20023;-57
2022/03/07 02:42:26;;;;;;;;;;;;;;;19.51;48.88;99691.25;2088095;28;19918;-57
2022/03/07 02:43:27;;;;;;;;;;;;;;;19.50;48.78;99678.63;2092507;28;20392;-57
2022/03/07 02:44:27;;;;;;;;;;;;;;;19.51;48.75;99685.81;2088294;28;20011;-57
2022/03/07 02:45:27;;;;;;;;;;;;;;;19.51;48.69;99685.81;2094053;28;20338;-57
2022/03/07 02:46:27;;;;;;;;;;;;;;;19.50;48.74;99681.38;2096754;28;19927;-57
2022/03/07 02:47:28;;;;;;;;;;;;;;;19.52;48.67;99686.66;2096486;28;19919;-57
2022/03/07 02:48:28;;;;;;;;;;;;;;;19.51;48.66;99680.34;2089629;28;20319;-57
2022/03/07 02:49:28;;;;;;;;;;;;;;;19.51;48.63;99684.94;2093800;28;19916;-57
2022/03/07 02:50:29;;;;;;;;;;;;;;;19.50;48.53;99678.63;2092294;28;20018;-58
2022/03/07 02:51:29;;;;;;;;;;;;;;;19.49;48.63;99682.38;2094631;28;19970;-57
2022/03/07 02:52:30;;;;;;;;;;;;;;;19.49;48.67;99682.38;2089269;28;19996;-58
2022/03/07 02:53:30;;;;;;;;;;;;;;;19.49;48.66;99683.22;2089878;28;19927;-57
2022/03/07 02:54:30;;;;;;;;;;;;;;;19.47;48.58;99682.50;2091405;28;20271;-57
2022/03/07 02:55:32;;;;;;;;;;;;;;;19.46;48.71;99667.16;2084656;28;19935;-57
2022/03/07 02:56:32;;;;;;;;;;;;;;;19.47;48.66;99674.31;2090625;28;19916;-58
2022/03/07 02:57:32;;;;;;;;;;;;;;;19.47;48.79;99670.72;2089870;28;19915;-57
2022/03/07 02:58:32;;;;;;;;;;;;;;;19.47;48.64;99663.38;2097407;28;20131;-58
2022/03/07 02:59:33;;;;;;;;;;;;;;;19.47;48.62;99659.78;2094263;28;19919;-58
2022/03/07 03:00:34;;;;;;;;;;;;;;;19.47;48.75;99659.78;2091965;28;20290;-58
2022/03/07 03:01:34;;;;;;;;;;;;;;;19.46;48.68;99655.38;2092543;28;19920;-57
2022/03/07 03:02:35;;;;;;;;;;;;;;;19.47;48.66;99662.53;2091990;28;19927;-58
2022/03/07 03:03:35;;;;;;;;;;;;;;;19.47;48.69;99657.06;2092531;28;19972;-58
2022/03/07 03:04:36;;;;;;;;;;;;;;;19.46;48.70;99663.56;2076783;28;19921;-57
2022/03/07 03:05:37;;;;;;;;;;;;;;;19.47;48.66;99659.78;2079560;28;19978;-58
2022/03/07 03:06:37;;;;;;;;;;;;;;;19.47;48.72;99657.06;2096466;28;19930;-58
2022/03/07 03:07:38;;;;;;;;;;;;;;;19.46;48.73;99656.22;2092267;28;19920;-57
2022/03/07 03:08:38;;;;;;;;;;;;;;;19.47;48.67;99652.44;2089550;28;19945;-57
2022/03/07 03:09:39;;;;;;;;;;;;;;;19.48;48.65;99665.13;2092248;28;19927;-57
2022/03/07 03:10:39;;;;;;;;;;;;;;;19.48;48.79;99653.31;2089964;28;20390;-58
2022/03/07 03:11:39;;;;;;;;;;;;;;;19.48;48.65;99664.25;2093274;28;20328;-58
2022/03/07 03:12:40;;;;;;;;;;;;;;;19.49;48.60;99660.50;2090002;28;20021;-57
2022/03/07 03:13:40;;;;;;;;;;;;;;;19.48;48.71;99653.31;2088323;28;19970;-57
2022/03/07 03:14:41;;;;;;;;;;;;;;;19.49;48.64;99655.03;2090450;28;19920;-57
2022/03/07 03:15:41;;;;;;;;;;;;;;;19.49;48.75;99660.50;2092340;28;20048;-57
2022/03/07 03:16:42;;;;;;;;;;;;;;;19.48;48.70;99658.78;2091958;28;19920;-57
2022/03/07 03:17:42;;;;;;;;;;;;;;;19.48;48.61;99656.06;2090296;28;19920;-57
2022/03/07 03:18:43;;;;;;;;;;;;;;;19.49;48.61;99660.50;2088975;28;19931;-57
2022/03/07 03:19:43;;;;;;;;;;;;;;;19.48;48.61;99656.06;2089423;28;20850;-58
2022/03/07 03:20:44;;;;;;;;;;;;;;;19.48;48.56;99662.38;2092839;28;19919;-58
2022/03/07 03:21:44;;;;;;;;;;;;;;;19.46;48.43;99653.47;2091003;28;20570;-58
2022/03/07 03:22:44;;;;;;;;;;;;;;;19.47;48.69;99654.31;2092369;28;19993;-58
2022/03/07 03:23:46;;;;;;;;;;;;;;;19.46;48.75;99649.91;2092479;28;20135;-57
2022/03/07 03:24:46;;;;;;;;;;;;;;;19.44;48.66;99646.47;2095806;28;20014;-58
2022/03/07 03:25:47;;;;;;;;;;;;;;;19.43;48.71;99651.09;2091360;28;20255;-57
2022/03/07 03:26:47;;;;;;;;;;;;;;;19.42;48.69;99653.97;2095823;28;19927;-57
2022/03/07 03:27:47;;;;;;;;;;;;;;;19.41;48.69;99647.66;2092025;28;19920;-57
2022/03/07 03:28:48;;;;;;;;;;;;;;;19.41;48.68;99650.38;2093288;28;20252;-57
2022/03/07 03:29:48;;;;;;;;;;;;;;;19.40;48.70;99653.25;2094751;28;19926;-57
2022/03/07 03:30:48;;;;;;;;;;;;;;;19.40;48.75;99656.00;2092155;28;19924;-58
2022/03/07 03:31:49;;;;;;;;;;;;;;;19.40;48.74;99656.00;2090219;28;20036;-58
2022/03/07 03:32:49;;;;;;;;;;;;;;;19.39;48.71;99651.56;2087019;28;19950;-57
2022/03/07 03:33:50;;;;;;;;;;;;;;;19.38;48.83;99658.06;2088746;28;19920;-58
2022/03/07 03:34:50;;;;;;;;;;;;;;;19.38;48.84;99658.91;2091969;28;20004;-57
2022/03/07 03:35:50;;;;;;;;;;;;;;;19.37;48.78;99657.19;2092633;28;19955;-57
2022/03/07 03:36:51;;;;;;;;;;;;;;;19.37;48.80;99657.19;2093525;28;20014;-57
2022/03/07 03:37:51;;;;;;;;;;;;;;;19.35;48.82;99659.22;2093583;28;19916;-58
2022/03/07 03:38:52;;;;;;;;;;;;;;;19.36;48.78;99660.09;2087750;28;19916;-58
2022/03/07 03:39:53;;;;;;;;;;;;;;;19.35;48.78;99653.75;2088666;28;19966;-58
2022/03/07 03:40:54;;;;;;;;;;;;;;;19.36;48.92;99654.63;2094450;28;19916;-58
2022/03/07 03:41:54;;;;;;;;;;;;;;;19.35;48.78;99658.38;2091422;28;19964;-58
2022/03/07 03:42:54;;;;;;;;;;;;;;;19.36;48.79;99657.38;2090769;28;19919;-57
2022/03/07 03:43:55;;;;;;;;;;;;;;;19.34;48.74;99653.94;2091954;28;20330;-58
2022/03/07 03:44:55;;;;;;;;;;;;;;;19.36;48.87;99651.91;2090166;28;20394;-58
2022/03/07 03:45:55;;;;;;;;;;;;;;;19.35;48.80;99659.22;2095386;28;20324;-57
2022/03/07 03:46:55;;;;;;;;;;;;;;;19.36;48.79;99651.91;2088022;28;19931;-57
2022/03/07 03:47:56;;;;;;;;;;;;;;;19.36;48.76;99654.63;2088743;28;19985;-57
2022/03/07 03:48:57;;;;;;;;;;;;;;;19.36;48.84;99657.38;2090263;28;19920;-57
2022/03/07 03:49:57;;;;;;;;;;;;;;;19.36;48.71;99658.22;2090898;28;20486;-58
2022/03/07 03:50:57;;;;;;;;;;;;;;;19.35;48.76;99655.63;2092697;28;19920;-58
2022/03/07 03:51:57;;;;;;;;;;;;;;;19.35;48.81;99653.75;2090408;28;20390;-58
2022/03/07 03:52:58;;;;;;;;;;;;;;;19.34;48.81;99657.50;2092406;28;19924;-57
2022/03/07 03:53:58;;;;;;;;;;;;;;;19.34;48.73;99662.97;2094948;28;19927;-57
2022/03/07 03:54:58;;;;;;;;;;;;;;;19.34;48.87;99657.50;2092002;28;20450;-56
2022/03/07 03:55:59;;;;;;;;;;;;;;;19.34;48.88;99654.78;2097974;28;20580;-56
2022/03/07 03:56:59;;;;;;;;;;;;;;;19.34;48.87;99657.50;2091898;28;19919;-56
2022/03/07 03:57:59;;;;;;;;;;;;;;;19.33;48.67;99660.41;2096165;28;19920;-56
2022/03/07 03:59:00;;;;;;;;;;;;;;;19.33;48.91;99657.66;2089046;28;19912;-57
2022/03/07 04:00:00;;;;;;;;;;;;;;;19.32;48.88;99653.22;2087596;28;20362;-57
2022/03/07 04:01:00;;;;;;;;;;;;;;;19.32;48.95;99655.97;2090289;28;19918;-56
2022/03/07 04:02:01;;;;;;;;;;;;;;;19.33;48.71;99660.41;2088512;28;19921;-57
2022/03/07 04:03:01;;;;;;;;;;;;;;;19.32;48.90;99658.69;2091266;28;20053;-57
2022/03/07 04:04:01;;;;;;;;;;;;;;;19.32;48.85;99655.97;2096477;28;20026;-56
2022/03/07 04:05:02;;;;;;;;;;;;;;;19.31;48.91;99662.47;2089779;28;20353;-57
2022/03/07 04:06:04;;;;;;;;;;;;;;;19.32;48.86;99658.69;2093839;28;19927;-56
2022/03/07 04:07:05;;;;;;;;;;;;;;;19.31;48.88;99659.72;2084707;28;19918;-57
2022/03/07 04:08:05;;;;;;;;;;;;;;;19.31;48.85;99667.94;2082514;28;19939;-57
2022/03/07 04:09:10;;;;;;;;;;;;;;;19.32;48.88;99664.16;2097597;28;20037;-56
2022/03/07 04:10:13;;;;;;;;;;;;;;;19.31;48.91;99662.47;2087500;28;20357;-57
2022/03/07 04:11:13;;;;;;;;;;;;;;;19.30;48.93;99655.25;2093274;28;19920;-57
2022/03/07 04:12:13;;;;;;;;;;;;;;;19.30;48.87;99655.25;2091780;28;19935;-57
2022/03/07 04:13:14;;;;;;;;;;;;;;;19.30;48.95;99655.25;2090084;28;20283;-56
2022/03/07 04:14:14;;;;;;;;;;;;;;;19.29;48.88;99648.94;2091601;28;19927;-56
2022/03/07 04:15:14;;;;;;;;;;;;;;;19.30;48.92;99658.00;2089927;28;19931;-57
2022/03/07 04:16:15;;;;;;;;;;;;;;;19.29;48.87;99654.41;2088327;28;19920;-57
2022/03/07 04:17:16;;;;;;;;;;;;;;;19.28;48.80;99659.03;2096561;28;19919;-57
2022/03/07 04:18:16;;;;;;;;;;;;;;;19.30;48.85;99655.25;2090095;28;19952;-56
2022/03/07 04:19:17;;;;;;;;;;;;;;;19.28;48.89;99653.56;2093225;28;19920;-56
2022/03/07 04:20:17;;;;;;;;;;;;;;;19.29;48.91;99651.69;2091068;28;19920;-56
2022/03/07 04:21:19;;;;;;;;;;;;;;;19.27;48.94;99653.72;2089281;28;20042;-56
2022/03/07 04:22:19;;;;;;;;;;;;;;;19.27;49.00;99650.97;2076743;28;19920;-56
2022/03/07 04:23:20;;;;;;;;;;;;;;;19.25;48.98;99648.41;2085697;28;19954;-56
2022/03/07 04:24:21;;;;;;;;;;;;;;;19.26;48.82;99655.59;2081860;28;19908;-56
2022/03/07 04:25:21;;;;;;;;;;;;;;;19.24;48.89;99654.91;2091313;28;19992;-57
2022/03/07 04:26:21;;;;;;;;;;;;;;;19.24;48.95;99652.16;2090433;28;20077;-57
2022/03/07 04:27:22;;;;;;;;;;;;;;;19.23;48.82;99657.78;2090418;28;19927;-57
2022/03/07 04:28:22;;;;;;;;;;;;;;;19.22;48.90;99654.19;2090485;28;20275;-57
2022/03/07 04:29:23;;;;;;;;;;;;;;;19.22;48.94;99656.94;2087478;28;20311;-57
2022/03/07 04:30:23;;;;;;;;;;;;;;;19.20;49.10;99658.97;2091639;28;19909;-57
2022/03/07 04:31:23;;;;;;;;;;;;;;;19.20;49.03;99658.09;2084670;28;20853;-57
2022/03/07 04:32:24;;;;;;;;;;;;;;;19.20;49.03;99660.84;2089733;28;20020;-57
2022/03/07 04:33:24;;;;;;;;;;;;;;;19.19;48.97;99653.69;2091838;28;19912;-58
2022/03/07 04:34:24;;;;;;;;;;;;;;;19.18;49.12;99652.81;2086186;28;20025;-57
2022/03/07 04:35:25;;;;;;;;;;;;;;;19.19;49.04;99654.53;2090239;28;20362;-58
2022/03/07 04:36:25;;;;;;;;;;;;;;;19.18;48.95;99658.28;2091773;28;20526;-57
2022/03/07 04:37:25;;;;;;;;;;;;;;;19.17;48.98;99656.56;2088350;28;19956;-57
2022/03/07 04:38:26;;;;;;;;;;;;;;;19.18;49.14;99652.81;2087204;28;19922;-57
2022/03/07 04:39:27;;;;;;;;;;;;;;;19.18;49.03;99654.66;2086979;28;20444;-57
2022/03/07 04:40:28;;;;;;;;;;;;;;;19.17;49.06;99652.97;2086841;28;20376;-57
2022/03/07 04:41:28;;;;;;;;;;;;;;;19.16;49.07;99657.59;2083558;28;20376;-57
2022/03/07 04:42:29;;;;;;;;;;;;;;;19.17;49.01;99656.56;2080322;28;19920;-58
2022/03/07 04:43:29;;;;;;;;;;;;;;;19.18;49.11;99657.41;2088899;28;19997;-57
2022/03/07 04:44:30;;;;;;;;;;;;;;;19.18;49.10;99654.66;2090461;28;19996;-57
2022/03/07 04:45:30;;;;;;;;;;;;;;;19.19;49.01;99656.41;2089814;28;19928;-57
2022/03/07 04:46:30;;;;;;;;;;;;;;;19.18;49.08;99655.56;2091186;28;19935;-57
2022/03/07 04:47:31;;;;;;;;;;;;;;;19.19;48.96;99654.53;2090292;28;20316;-57
2022/03/07 04:48:31;;;;;;;;;;;;;;;19.19;48.96;99650.94;2086863;28;19920;-58
2022/03/07 04:49:31;;;;;;;;;;;;;;;19.19;49.05;99650.94;2092637;28;20020;-58
2022/03/07 04:50:31;;;;;;;;;;;;;;;19.19;48.91;99649.06;2087436;28;21083;-57
2022/03/07 04:51:32;;;;;;;;;;;;;;;19.19;48.97;99657.25;2085799;28;19920;-57
2022/03/07 04:52:32;;;;;;;;;;;;;;;19.19;48.99;99651.78;2091610;28;19923;-57
2022/03/07 04:53:33;;;;;;;;;;;;;;;19.19;48.89;99654.53;2081721;28;19932;-57
2022/03/07 04:54:34;;;;;;;;;;;;;;;19.20;48.94;99650.75;2091530;28;19941;-58
2022/03/07 04:55:34;;;;;;;;;;;;;;;19.19;48.91;99649.06;2086612;28;19947;-58
2022/03/07 04:56:34;;;;;;;;;;;;;;;19.19;48.88;99643.59;2089290;28;19912;-57
2022/03/07 04:57:35;;;;;;;;;;;;;;;19.18;48.99;99647.34;2089599;28;19920;-57
2022/03/07 04:58:36;;;;;;;;;;;;;;;19.17;48.87;99642.91;2087120;28;19923;-57
2022/03/07 04:59:36;;;;;;;;;;;;;;;19.18;48.88;99641.91;2093656;28;20101;-57
2022/03/07 05:00:37;;;;;;;;;;;;;;;19.17;48.97;99645.63;2085720;28;20717;-57
2022/03/07 05:01:37;;;;;;;;;;;;;;;19.18;48.89;99647.34;2081848;28;19959;-57
2022/03/07 05:02:37;;;;;;;;;;;;;;;19.18;48.93;99646.47;2080528;28;19920;-57
2022/03/07 05:03:38;;;;;;;;;;;;;;;19.17;48.89;99645.63;2086541;28;19920;-58
2022/03/07 05:04:39;;;;;;;;;;;;;;;19.17;48.98;99650.25;2080864;28;20045;-58
2022/03/07 05:05:40;;;;;;;;;;;;;;;19.16;48.94;99649.38;2080951;28;20015;-58
2022/03/07 05:06:40;;;;;;;;;;;;;;;19.17;48.80;99651.09;2088989;28;20332;-58
2022/03/07 05:07:40;;;;;;;;;;;;;;;19.16;49.18;99646.66;2084716;28;19927;-57
2022/03/07 05:08:41;;;;;;;;;;;;;;;19.16;48.72;99643.94;2084726;28;20135;-57
2022/03/07 05:09:41;;;;;;;;;;;;;;;19.16;48.85;99649.38;2098528;28;20205;-57
2022/03/07 05:10:41;;;;;;;;;;;;;;;19.17;48.90;99650.25;2087814;28;19920;-58
2022/03/07 05:11:42;;;;;;;;;;;;;;;19.16;48.96;99652.13;2090458;28;20381;-57
2022/03/07 05:12:43;;;;;;;;;;;;;;;19.16;48.90;99654.84;2086133;28;19963;-57
2022/03/07 05:13:43;;;;;;;;;;;;;;;19.16;48.93;99643.94;2085590;28;19954;-58
2022/03/07 05:14:43;;;;;;;;;;;;;;;19.15;48.89;99647.66;2092470;28;19964;-57
2022/03/07 05:15:44;;;;;;;;;;;;;;;19.16;48.94;99652.13;2086726;28;20198;-57